Time;durP1;ratioP1;P1;durP2;ratioP2;P2;SDS_P1;SDS_P2;PMS_P1;PMS_P2;Temp;Humidity;BMP_temperature;BMP_pressure;BME280_temperature;BME280_humidity;BME280_pressure;Samples;Min_cycle;Max_cycle;Signal;HPM_P1;HPM_P2
2021/12/28 00:01:26;;;;;;;41.90;21.90;;;;;;;-6.92;88.99;100101.40;106175;1318;22542;-58
2021/12/28 00:03:54;;;;;;;38.60;23.50;;;;;;;-6.91;88.91;100102.25;106179;1318;22471;-58
2021/12/28 00:06:22;;;;;;;41.20;24.40;;;;;;;-6.89;88.85;100100.16;106061;1318;139569;-58
2021/12/28 00:08:49;;;;;;;39.80;21.70;;;;;;;-6.89;88.78;100093.23;106159;1315;22477;-58
2021/12/28 00:11:17;;;;;;;40.80;22.20;;;;;;;-6.87;88.83;100091.35;106063;1316;139223;-58
2021/12/28 00:13:45;;;;;;;37.50;20.90;;;;;;;-6.87;88.79;100089.20;106170;1318;22411;-57
2021/12/28 00:16:32;;;;;;;36.10;22.90;;;;;;;-6.85;88.78;100090.02;104310;1318;24365;-56
2021/12/28 00:19:01;;;;;;;46.40;23.00;;;;;;;-6.83;88.83;100093.74;106062;1315;138850;-57
2021/12/28 00:21:29;;;;;;;37.90;21.50;;;;;;;-6.81;88.84;100092.00;106209;1316;22425;-57
2021/12/28 00:23:58;;;;;;;35.70;20.80;;;;;;;-6.79;88.77;100086.17;106083;1316;139949;-57
2021/12/28 00:26:27;;;;;;;40.00;22.20;;;;;;;-6.75;88.72;100086.23;106173;1318;22571;-57
2021/12/28 00:28:54;;;;;;;38.50;21.20;;;;;;;-6.74;88.65;100088.44;106108;1317;140499;-57
2021/12/28 00:31:24;;;;;;;38.00;21.00;;;;;;;-6.73;88.69;100083.09;106117;1318;23059;-57
2021/12/28 00:33:54;;;;;;;33.50;18.70;;;;;;;-6.73;88.57;100082.70;106157;1318;23131;-57
2021/12/28 00:36:21;;;;;;;37.00;19.50;;;;;;;-6.73;88.50;100082.84;105739;1322;139433;-58
2021/12/28 00:38:49;;;;;;;40.80;21.20;;;;;;;-6.73;88.43;100078.27;106134;1318;22625;-57
2021/12/28 00:41:17;;;;;;;31.80;18.00;;;;;;;-6.71;88.47;100078.99;106078;1318;138626;-58
2021/12/28 00:43:45;;;;;;;30.30;17.10;;;;;;;-6.70;88.47;100073.27;106176;1318;22374;-57
2021/12/28 00:46:13;;;;;;;26.20;16.50;;;;;;;-6.70;88.49;100067.97;106176;1316;22518;-57
2021/12/28 00:48:41;;;;;;;30.20;15.90;;;;;;;-6.69;88.49;100074.07;106068;1316;139603;-57
2021/12/28 00:51:09;;;;;;;31.10;18.00;;;;;;;-6.68;88.32;100073.55;106188;1315;22473;-57
2021/12/28 00:53:37;;;;;;;34.50;17.10;;;;;;;-6.68;88.22;100068.77;106030;1322;138599;-57
2021/12/28 00:56:05;;;;;;;31.70;17.80;;;;;;;-6.68;88.19;100068.84;106195;1317;23505;-57
2021/12/28 00:58:33;;;;;;;37.40;17.70;;;;;;;-6.69;88.21;100071.55;106179;1321;22513;-57
2021/12/28 01:01:01;;;;;;;49.60;23.60;;;;;;;-6.70;88.06;100074.88;106039;1318;138694;-57
2021/12/28 01:03:29;;;;;;;39.60;18.40;;;;;;;-6.71;87.99;100074.20;106166;1316;23046;-58
2021/12/28 01:05:57;;;;;;;34.10;18.70;;;;;;;-6.72;87.90;100075.31;106071;1316;138468;-57
2021/12/28 01:08:27;;;;;;;33.40;18.80;;;;;;;-6.71;87.86;100072.14;106207;1318;22409;-57
2021/12/28 01:10:55;;;;;;;31.70;18.80;;;;;;;-6.72;87.81;100066.02;106069;1319;138646;-57
2021/12/28 01:13:23;;;;;;;31.60;17.00;;;;;;;-6.73;87.69;100064.46;106181;1318;22472;-58
2021/12/28 01:15:51;;;;;;;31.10;18.10;;;;;;;-6.74;87.55;100062.66;106195;1321;22605;-58
2021/12/28 01:18:22;;;;;;;33.90;18.00;;;;;;;-6.75;87.40;100062.36;106051;1318;138860;-58
2021/12/28 01:20:51;;;;;;;34.00;18.50;;;;;;;-6.76;87.36;100060.13;106178;1318;22488;-58
2021/12/28 01:23:19;;;;;;;29.20;16.90;;;;;;;-6.78;87.33;100067.04;106095;1318;139666;-58
2021/12/28 01:25:46;;;;;;;31.40;17.50;;;;;;;-6.79;87.26;100069.98;106183;1318;23648;-57
2021/12/28 01:28:15;;;;;;;38.10;20.20;;;;;;;-6.80;87.14;100069.10;106151;1318;22468;-57
2021/12/28 01:30:43;;;;;;;32.50;18.60;;;;;;;-6.80;87.18;100065.59;106106;1316;138639;-57
2021/12/28 01:33:11;;;;;;;30.50;18.60;;;;;;;-6.80;87.19;100065.31;106171;1318;22473;-57
2021/12/28 01:35:39;;;;;;;34.80;20.20;;;;;;;-6.81;87.08;100064.84;106063;1321;139571;-57
2021/12/28 01:38:07;;;;;;;33.60;18.90;;;;;;;-6.82;87.09;100060.67;106174;1316;22475;-57
2021/12/28 01:40:37;;;;;;;37.60;20.00;;;;;;;-6.81;87.09;100056.89;106170;1316;23550;-57
2021/12/28 01:43:11;;;;;;;33.70;18.70;;;;;;;-6.82;87.08;100056.58;106067;1317;139131;-57
2021/12/28 01:45:51;;;;;;;32.40;18.80;;;;;;;-6.82;87.05;100055.58;106150;1316;22429;-57
2021/12/28 01:48:22;;;;;;;37.30;19.60;;;;;;;-6.82;87.11;100053.09;105493;1316;138392;-57
2021/12/28 01:50:51;;;;;;;36.70;19.20;;;;;;;-6.82;87.05;100057.36;106177;1316;23739;-58
2021/12/28 01:53:19;;;;;;;35.10;18.20;;;;;;;-6.82;87.10;100056.77;106095;1321;138649;-57
2021/12/28 01:55:48;;;;;;;30.60;17.20;;;;;;;-6.80;87.23;100053.61;106146;1318;23367;-57
2021/12/28 01:58:20;;;;;;;33.60;18.80;;;;;;;-6.80;87.10;100046.73;106143;1321;22416;-57
2021/12/28 02:00:50;;;;;;;34.50;19.80;;;;;;;-6.78;87.19;100051.13;106141;1318;139770;-57
2021/12/28 02:03:19;;;;;;;45.70;21.30;;;;;;;-6.77;87.15;100051.36;106181;1321;22494;-58
2021/12/28 02:05:48;;;;;;;32.10;17.30;;;;;;;-6.75;87.04;100054.77;106099;1318;138451;-58
2021/12/28 02:08:16;;;;;;;35.60;19.50;;;;;;;-6.73;87.13;100059.88;106162;1318;22401;-58
2021/12/28 02:10:46;;;;;;;36.60;19.70;;;;;;;-6.72;87.09;100061.59;105641;1318;138486;-60
2021/12/28 02:13:15;;;;;;;37.50;18.80;;;;;;;-6.71;86.97;100061.48;106165;1317;22480;-57
2021/12/28 02:15:42;;;;;;;33.10;18.40;;;;;;;-6.70;86.93;100056.83;105125;1323;23069;-57
2021/12/28 02:18:12;;;;;;;35.40;19.40;;;;;;;-6.69;86.88;100062.52;106085;1316;139797;-57
2021/12/28 02:20:41;;;;;;;37.40;19.60;;;;;;;-6.68;86.92;100060.19;106189;1318;22478;-57
2021/12/28 02:23:11;;;;;;;33.90;17.30;;;;;;;-6.68;86.73;100056.59;106035;1318;138756;-57
2021/12/28 02:25:47;;;;;;;33.70;18.90;;;;;;;-6.67;86.72;100059.36;105183;1320;25466;-56
2021/12/28 02:28:15;;;;;;;34.80;19.50;;;;;;;-6.66;86.64;100060.73;102184;1316;22731;-57
2021/12/28 02:30:46;;;;;;;36.70;19.50;;;;;;;-6.68;86.49;100059.10;105884;1315;138984;-58
2021/12/28 02:33:15;;;;;;;40.60;20.50;;;;;;;-6.68;86.45;100053.66;106168;1322;23856;-58
2021/12/28 02:35:43;;;;;;;32.50;19.00;;;;;;;-6.70;86.43;100044.06;106108;1318;138447;-56
2021/12/28 02:38:11;;;;;;;35.80;19.40;;;;;;;-6.70;86.46;100038.29;106166;1316;22476;-56
2021/12/28 02:40:40;;;;;;;36.30;20.10;;;;;;;-6.71;86.31;100035.55;106182;1316;22538;-58
2021/12/28 02:43:09;;;;;;;34.80;18.90;;;;;;;-6.72;86.24;100034.40;106068;1316;139350;-56
2021/12/28 02:45:39;;;;;;;36.40;20.40;;;;;;;-6.72;86.14;100022.41;106205;1318;22418;-56
2021/12/28 02:48:07;;;;;;;38.20;21.00;;;;;;;-6.74;86.13;100015.79;105626;1322;140174;-56
2021/12/28 02:50:41;;;;;;;28.80;17.00;;;;;;;-6.73;86.20;100025.77;106129;1318;22420;-56
2021/12/28 02:53:10;;;;;;;39.10;21.00;;;;;;;-6.72;86.22;100030.16;106091;1316;138688;-56
2021/12/28 02:55:39;;;;;;;35.10;20.30;;;;;;;-6.69;86.22;100027.03;106215;1317;22414;-56
2021/12/28 02:58:12;;;;;;;32.80;18.80;;;;;;;-6.67;86.05;100020.54;106150;1318;22479;-56
2021/12/28 03:00:52;;;;;;;37.10;21.60;;;;;;;-6.67;85.80;100024.05;106052;1318;138420;-56
2021/12/28 03:03:23;;;;;;;32.80;19.20;;;;;;;-6.66;85.89;100025.05;106222;1323;23030;-55
2021/12/28 03:05:52;;;;;;;39.60;20.50;;;;;;;-6.67;85.69;100020.67;106041;1317;138516;-56
2021/12/28 03:08:22;;;;;;;38.20;20.40;;;;;;;-6.66;85.68;100022.05;106013;1318;22374;-56
2021/12/28 03:10:51;;;;;;;38.50;19.40;;;;;;;-6.66;85.57;100016.39;106111;1322;139181;-56
2021/12/28 03:13:25;;;;;;;35.80;20.20;;;;;;;-6.66;85.65;100007.71;106163;1316;22305;-56
2021/12/28 03:15:54;;;;;;;36.10;18.90;;;;;;;-6.66;85.51;100005.06;106072;1318;22557;-55
2021/12/28 03:18:22;;;;;;;33.40;19.60;;;;;;;-6.67;85.45;100015.36;106070;1318;138660;-55
2021/12/28 03:20:50;;;;;;;31.60;18.20;;;;;;;-6.67;85.41;100020.67;105165;1324;23084;-55
2021/12/28 03:23:20;;;;;;;37.80;19.00;;;;;;;-6.66;85.27;100011.61;106077;1316;138795;-56
2021/12/28 03:25:48;;;;;;;33.50;18.00;;;;;;;-6.67;85.06;100007.48;106228;1318;22316;-56
2021/12/28 03:28:21;;;;;;;32.30;17.40;;;;;;;-6.67;85.12;100007.98;106163;1318;22592;-57
2021/12/28 03:30:49;;;;;;;35.90;17.40;;;;;;;-6.66;85.16;100009.16;106057;1315;139455;-57
2021/12/28 03:33:18;;;;;;;30.20;16.50;;;;;;;-6.67;85.11;100010.41;106181;1322;22475;-57
2021/12/28 03:35:46;;;;;;;40.00;18.50;;;;;;;-6.68;84.96;100005.45;106087;1321;139018;-58
2021/12/28 03:38:14;;;;;;;34.80;17.00;;;;;;;-6.67;84.95;100007.45;105359;1317;22491;-58
2021/12/28 03:40:43;;;;;;;32.00;18.20;;;;;;;-6.67;84.75;100010.77;106165;1317;22401;-57
2021/12/28 03:43:10;;;;;;;29.90;17.30;;;;;;;-6.66;84.72;100017.80;106072;1319;140374;-57
2021/12/28 03:45:39;;;;;;;34.20;19.00;;;;;;;-6.65;84.67;100007.46;106178;1318;23632;-57
2021/12/28 03:48:07;;;;;;;31.20;18.70;;;;;;;-6.64;84.63;100008.09;106071;1318;139718;-58
2021/12/28 03:50:35;;;;;;;37.20;20.50;;;;;;;-6.64;84.63;100013.90;106178;1321;23539;-58
2021/12/28 03:53:04;;;;;;;40.20;20.60;;;;;;;-6.64;84.53;100003.67;106011;1316;138917;-58
2021/12/28 03:55:32;;;;;;;30.00;17.90;;;;;;;-6.65;84.29;99992.23;106150;1318;23313;-57
2021/12/28 03:58:02;;;;;;;30.60;18.20;;;;;;;-6.66;84.25;99988.08;106135;1322;22554;-57
2021/12/28 04:00:33;;;;;;;35.30;18.40;;;;;;;-6.67;84.24;99995.80;106099;1318;138285;-58
2021/12/28 04:03:01;;;;;;;38.20;18.80;;;;;;;-6.67;84.09;100001.60;106195;1318;22257;-58
2021/12/28 04:05:30;;;;;;;35.20;18.40;;;;;;;-6.66;84.15;99999.62;106015;1318;138842;-59
2021/12/28 04:07:57;;;;;;;32.50;17.00;;;;;;;-6.67;84.04;99993.31;106135;1315;22453;-58
2021/12/28 04:10:38;;;;;;;31.20;18.70;;;;;;;-6.66;84.05;99991.67;105848;1318;22601;-58
2021/12/28 04:13:08;;;;;;;32.50;18.00;;;;;;;-6.66;83.95;99999.91;101923;1318;142154;-58
2021/12/28 04:15:36;;;;;;;34.20;18.90;;;;;;;-6.65;83.97;99999.16;106172;1318;23336;-58
2021/12/28 04:18:04;;;;;;;38.40;20.10;;;;;;;-6.65;83.67;99998.79;106058;1318;140447;-59
2021/12/28 04:20:32;;;;;;;30.00;18.00;;;;;;;-6.66;83.54;99999.06;106190;1318;22565;-59
2021/12/28 04:23:01;;;;;;;34.60;19.10;;;;;;;-6.67;83.41;99998.39;105969;1322;140856;-59
2021/12/28 04:25:30;;;;;;;39.20;21.50;;;;;;;-6.65;83.47;99992.65;106196;1321;22487;-59
2021/12/28 04:27:58;;;;;;;33.60;17.60;;;;;;;-6.64;83.40;99993.58;106145;1323;22270;-58
2021/12/28 04:30:25;;;;;;;32.40;18.70;;;;;;;-6.62;83.36;99996.23;105981;1318;138365;-58
2021/12/28 04:32:53;;;;;;;35.10;19.00;;;;;;;-6.62;83.27;99993.14;105121;1325;23285;-58
2021/12/28 04:35:21;;;;;;;31.60;18.30;;;;;;;-6.60;83.19;99987.89;105672;1316;139774;-57
2021/12/28 04:37:49;;;;;;;33.30;18.10;;;;;;;-6.59;83.06;99991.34;102135;1316;24011;-55
2021/12/28 04:40:18;;;;;;;34.70;19.20;;;;;;;-6.58;83.09;99991.28;106154;1318;23377;-58
2021/12/28 04:42:47;;;;;;;39.90;19.40;;;;;;;-6.58;82.89;99991.25;105830;1316;139102;-58
2021/12/28 04:45:16;;;;;;;33.40;17.90;;;;;;;-6.60;82.63;99987.23;106221;1318;22588;-58
2021/12/28 04:47:44;;;;;;;71.60;29.10;;;;;;;-6.62;82.52;99981.92;106079;1316;139744;-58
2021/12/28 04:50:13;;;;;;;42.70;21.30;;;;;;;-6.64;82.48;99988.63;106185;1316;22533;-57
2021/12/28 04:52:41;;;;;;;40.70;20.30;;;;;;;-6.64;82.51;99993.20;106209;1315;22379;-57
2021/12/28 04:55:17;;;;;;;39.20;19.20;;;;;;;-6.63;82.49;99999.00;106064;1315;138612;-57
2021/12/28 04:57:45;;;;;;;38.60;18.20;;;;;;;-6.64;82.40;100003.44;106114;1317;22482;-57
2021/12/28 05:00:16;;;;;;;42.40;20.50;;;;;;;-6.64;82.38;100004.66;105848;1318;138741;-59
2021/12/28 05:02:45;;;;;;;43.90;20.80;;;;;;;-6.66;82.19;100003.63;106194;1316;23412;-58
2021/12/28 05:05:13;;;;;;;40.60;20.60;;;;;;;-6.66;82.08;100006.09;106083;1323;140310;-56
2021/12/28 05:07:41;;;;;;;34.50;19.90;;;;;;;-6.66;81.99;100004.33;106133;1316;22601;-57
2021/12/28 05:10:09;;;;;;;34.90;18.60;;;;;;;-6.66;82.06;100001.32;106183;1316;22678;-56
2021/12/28 05:12:37;;;;;;;36.10;19.60;;;;;;;-6.67;82.07;100003.36;106102;1318;140213;-57
2021/12/28 05:15:06;;;;;;;33.40;17.90;;;;;;;-6.67;82.02;100007.09;105534;1324;22410;-56
2021/12/28 05:17:34;;;;;;;34.70;19.00;;;;;;;-6.68;81.93;100007.17;106101;1318;138811;-56
2021/12/28 05:20:06;;;;;;;41.10;20.20;;;;;;;-6.71;81.83;100000.38;106173;1318;23067;-58
2021/12/28 05:22:34;;;;;;;30.40;17.10;;;;;;;-6.73;81.83;100004.61;106183;1318;22646;-58
2021/12/28 05:25:03;;;;;;;33.10;16.60;;;;;;;-6.73;81.90;100006.62;106037;1318;140077;-58
2021/12/28 05:27:36;;;;;;;33.30;17.70;;;;;;;-6.74;81.93;100001.55;106188;1316;23158;-58
2021/12/28 05:30:07;;;;;;;40.70;20.70;;;;;;;-6.76;81.82;99997.08;106070;1318;138690;-57
2021/12/28 05:32:35;;;;;;;30.60;17.20;;;;;;;-6.78;81.80;99994.42;106209;1318;22475;-57
2021/12/28 05:35:04;;;;;;;34.80;18.30;;;;;;;-6.81;81.64;99993.79;105979;1318;138715;-58
2021/12/28 05:37:36;;;;;;;31.90;17.90;;;;;;;-6.85;81.55;99998.77;106156;1322;22505;-56
2021/12/28 05:40:07;;;;;;;37.80;21.00;;;;;;;-6.88;81.66;100000.92;104634;1316;22566;-58
2021/12/28 05:42:36;;;;;;;34.40;18.50;;;;;;;-6.92;81.55;100005.77;102086;1316;140228;-57
2021/12/28 05:45:07;;;;;;;37.10;20.10;;;;;;;-6.96;81.60;100002.76;102203;1319;22734;-56
2021/12/28 05:47:36;;;;;;;44.70;20.50;;;;;;;-6.99;81.57;100003.36;102080;1322;138963;-56
2021/12/28 05:50:05;;;;;;;35.00;19.80;;;;;;;-7.01;81.72;99997.76;102181;1321;22937;-57
2021/12/28 05:52:33;;;;;;;36.50;20.40;;;;;;;-7.05;81.57;99994.59;102057;1318;23234;-57
2021/12/28 05:55:01;;;;;;;36.90;19.10;;;;;;;-7.11;81.52;99986.84;102108;1315;138933;-57
2021/12/28 05:57:30;;;;;;;30.10;15.90;;;;;;;-7.13;81.72;99986.42;102169;1318;23480;-56
2021/12/28 05:59:58;;;;;;;42.40;18.70;;;;;;;-7.16;81.78;99993.77;106062;1322;140067;-55
2021/12/28 06:02:25;;;;;;;36.30;18.00;;;;;;;-7.19;81.77;100001.56;106213;1316;22369;-56
2021/12/28 06:04:53;;;;;;;36.90;19.50;;;;;;;-7.22;81.78;100006.44;106136;1318;22478;-56
2021/12/28 06:07:26;;;;;;;65.00;26.30;;;;;;;-7.24;81.77;100010.03;106072;1316;138664;-56
2021/12/28 06:09:56;;;;;;;33.80;17.40;;;;;;;-7.26;81.89;100009.33;106133;1315;23323;-58
2021/12/28 06:12:24;;;;;;;33.60;18.40;;;;;;;-7.27;81.92;100016.42;106050;1318;139509;-56
2021/12/28 06:15:03;;;;;;;32.30;18.70;;;;;;;-7.25;81.83;100023.14;106172;1320;22502;-56
2021/12/28 06:17:31;;;;;;;40.10;17.70;;;;;;;-7.27;81.86;100018.53;106125;1315;139757;-56
2021/12/28 06:19:59;;;;;;;34.70;17.20;;;;;;;-7.27;81.76;100015.92;106178;1316;23242;-57
2021/12/28 06:22:27;;;;;;;37.10;18.90;;;;;;;-7.28;81.86;100011.93;106221;1316;22633;-57
2021/12/28 06:24:55;;;;;;;33.50;18.90;;;;;;;-7.28;81.78;100008.09;106083;1318;138571;-57
2021/12/28 06:27:23;;;;;;;33.40;18.70;;;;;;;-7.29;81.71;100010.77;106190;1321;22395;-57
2021/12/28 06:29:51;;;;;;;41.10;20.00;;;;;;;-7.31;81.57;100013.08;106055;1316;138703;-56
2021/12/28 06:32:19;;;;;;;37.20;18.80;;;;;;;-7.33;81.59;100014.51;106216;1318;22382;-57
2021/12/28 06:34:47;;;;;;;38.40;20.20;;;;;;;-7.34;81.59;100015.40;106147;1316;22457;-57
2021/12/28 06:37:15;;;;;;;40.60;21.20;;;;;;;-7.35;81.65;100011.69;106062;1323;138602;-57
2021/12/28 06:39:43;;;;;;;32.70;19.50;;;;;;;-7.37;81.56;100012.90;106199;1316;23718;-57
2021/12/28 06:42:11;;;;;;;35.20;19.30;;;;;;;-7.39;81.58;100017.31;106027;1318;139268;-57
2021/12/28 06:44:42;;;;;;;36.70;19.50;;;;;;;-7.41;81.48;100018.72;106192;1316;22379;-57
2021/12/28 06:47:10;;;;;;;42.00;18.10;;;;;;;-7.43;81.46;100016.04;102819;1317;140294;-55
2021/12/28 06:49:38;;;;;;;34.70;18.40;;;;;;;-7.44;81.59;100015.05;102201;1316;22601;-57
2021/12/28 06:52:07;;;;;;;34.20;19.00;;;;;;;-7.43;81.53;100010.45;102247;1317;22593;-57
2021/12/28 06:54:37;;;;;;;37.00;19.90;;;;;;;-7.43;81.63;100008.29;101963;1316;138537;-57
2021/12/28 06:57:11;;;;;;;34.50;17.90;;;;;;;-7.42;81.67;100010.50;102134;1319;24263;-56
2021/12/28 06:59:45;;;;;;;34.90;19.90;;;;;;;-7.43;81.54;100013.22;102011;1318;139319;-57
2021/12/28 07:02:14;;;;;;;38.30;18.90;;;;;;;-7.44;81.41;100013.34;106169;1315;22500;-56
2021/12/28 07:04:42;;;;;;;33.00;18.00;;;;;;;-7.45;81.44;100017.10;106139;1321;22540;-57
2021/12/28 07:07:10;;;;;;;42.00;20.40;;;;;;;-7.46;81.29;100015.77;106010;1316;140142;-56
2021/12/28 07:09:39;;;;;;;37.80;19.80;;;;;;;-7.45;81.36;100022.06;106136;1316;23263;-56
2021/12/28 07:12:08;;;;;;;35.80;18.50;;;;;;;-7.44;81.33;100019.86;106068;1318;139755;-56
2021/12/28 07:14:36;;;;;;;42.90;18.40;;;;;;;-7.42;81.30;100016.45;106164;1316;23348;-56
2021/12/28 07:17:04;;;;;;;41.70;18.00;;;;;;;-7.40;81.22;100008.41;106063;1318;140764;-56
2021/12/28 07:19:32;;;;;;;35.80;18.60;;;;;;;-7.39;80.80;99997.22;106204;1315;22537;-56
2021/12/28 07:22:00;;;;;;;31.30;17.60;;;;;;;-7.39;80.77;100001.96;106167;1316;22490;-56
2021/12/28 07:24:30;;;;;;;36.00;19.30;;;;;;;-7.39;80.74;100002.30;105965;1318;138429;-56
2021/12/28 07:26:58;;;;;;;37.50;19.80;;;;;;;-7.38;80.55;99997.80;106149;1316;22405;-56
2021/12/28 07:29:29;;;;;;;36.00;20.00;;;;;;;-7.36;80.56;99996.60;105476;1318;138746;-57
2021/12/28 07:31:57;;;;;;;38.50;20.30;;;;;;;-7.35;80.57;99994.70;105438;1323;22500;-57
2021/12/28 07:34:25;;;;;;;39.50;19.90;;;;;;;-7.32;80.37;99994.11;106219;1318;22574;-57
2021/12/28 07:36:53;;;;;;;31.60;17.80;;;;;;;-7.30;80.19;99990.02;105864;1321;138210;-56
2021/12/28 07:39:21;;;;;;;36.10;18.30;;;;;;;-7.28;79.95;99983.00;106206;1318;22552;-57
2021/12/28 07:41:49;;;;;;;32.20;17.20;;;;;;;-7.27;79.61;99978.98;106064;1316;139425;-56
2021/12/28 07:44:21;;;;;;;39.50;18.70;;;;;;;-7.25;79.34;99975.28;106179;1318;23590;-57
2021/12/28 07:46:49;;;;;;;31.30;16.80;;;;;;;-7.22;78.97;99971.33;106152;1316;22429;-57
2021/12/28 07:49:17;;;;;;;35.70;18.20;;;;;;;-7.22;78.55;99974.21;106020;1316;140274;-57
2021/12/28 07:51:46;;;;;;;29.70;16.10;;;;;;;-7.21;78.21;99977.63;106159;1317;22580;-57
2021/12/28 07:54:14;;;;;;;31.10;15.50;;;;;;;-7.21;78.12;99975.11;106086;1318;138437;-57
2021/12/28 07:56:42;;;;;;;32.10;17.00;;;;;;;-7.19;78.01;99977.77;106179;1315;22304;-56
2021/12/28 07:59:09;;;;;;;31.20;17.30;;;;;;;-7.19;77.89;99975.80;106043;1318;139010;-56
2021/12/28 08:01:38;;;;;;;35.90;17.60;;;;;;;-7.16;77.65;99978.90;106183;1316;22416;-57
2021/12/28 08:04:07;;;;;;;35.40;18.20;;;;;;;-7.15;77.45;99979.20;106174;1317;22473;-57
2021/12/28 08:06:35;;;;;;;34.20;17.20;;;;;;;-7.13;77.24;99977.46;106060;1321;139015;-57
2021/12/28 08:09:02;;;;;;;41.30;18.50;;;;;;;-7.12;76.92;99978.61;106060;1317;22481;-57
2021/12/28 08:11:30;;;;;;;34.70;18.70;;;;;;;-7.12;76.61;99978.92;105966;1315;139369;-57
2021/12/28 08:15:33;;;;;;;32.70;17.60;;;;;;;-7.07;76.25;99971.11;99699;1345;545153;-57
2021/12/28 08:18:11;;;;;;;32.40;18.40;;;;;;;-7.06;76.18;99968.77;100819;1330;137535;-56
2021/12/28 08:20:40;;;;;;;37.70;19.50;;;;;;;-7.06;76.12;99968.00;100832;1328;22727;-57
2021/12/28 08:23:08;;;;;;;38.90;18.30;;;;;;;-7.06;76.07;99964.76;100754;1330;139398;-57
2021/12/28 08:25:36;;;;;;;36.30;18.00;;;;;;;-7.04;76.18;99967.44;100936;1328;22611;-55
2021/12/28 08:28:06;;;;;;;39.50;19.70;;;;;;;-7.02;76.14;99963.77;97483;1328;5047359;-55
2021/12/28 08:30:35;;;;;;;41.20;19.10;;;;;;;-7.00;75.75;99962.12;105317;1325;138970;-57
2021/12/28 08:33:03;;;;;;;37.10;19.50;;;;;;;-6.99;75.65;99952.50;105467;1326;24680;-57
2021/12/28 08:35:32;;;;;;;42.40;20.10;;;;;;;-6.97;75.40;99941.75;104595;1328;138453;-58
2021/12/28 08:38:00;;;;;;;34.70;18.10;;;;;;;-6.95;75.22;99941.26;105491;1325;22510;-57
2021/12/28 08:40:28;;;;;;;49.00;21.90;;;;;;;-6.94;74.90;99939.90;105475;1326;22613;-58
2021/12/28 08:42:56;;;;;;;32.60;19.50;;;;;;;-6.93;74.41;99941.20;105397;1325;139730;-58
2021/12/28 08:45:24;;;;;;;42.50;20.70;;;;;;;-6.92;74.36;99942.91;105509;1325;22517;-58
2021/12/28 08:47:52;;;;;;;29.90;16.90;;;;;;;-6.91;74.04;99939.94;105435;1325;139223;-58
2021/12/28 08:50:20;;;;;;;37.50;17.80;;;;;;;-6.90;74.15;99940.41;105488;1325;22557;-58
2021/12/28 08:52:48;;;;;;;44.00;21.00;;;;;;;-6.88;74.27;99938.10;105526;1325;23246;-58
2021/12/28 08:55:20;;;;;;;35.60;19.00;;;;;;;-6.84;74.21;99931.27;105376;1325;139449;-58
2021/12/28 08:57:48;;;;;;;35.10;18.10;;;;;;;-6.84;73.65;99926.60;105498;1322;22433;-58
2021/12/28 09:00:23;;;;;;;30.60;17.30;;;;;;;-6.81;73.44;99930.05;105426;1325;138171;-58
2021/12/28 09:02:53;;;;;;;38.40;18.60;;;;;;;-6.81;73.27;99920.34;105500;1328;22721;-58
2021/12/28 09:05:21;;;;;;;35.60;20.00;;;;;;;-6.81;73.20;99918.39;105449;1325;137397;-58
2021/12/28 09:07:52;;;;;;;40.70;19.20;;;;;;;-6.80;73.23;99916.36;106246;1315;23653;-58
2021/12/28 09:10:21;;;;;;;32.60;18.30;;;;;;;-6.81;72.96;99908.89;106295;1315;22472;-58
2021/12/28 09:12:49;;;;;;;30.30;16.40;;;;;;;-6.83;72.95;99915.90;106163;1315;138347;-58
2021/12/28 09:15:16;;;;;;;36.90;18.20;;;;;;;-6.82;72.92;99911.25;106349;1313;22375;-57
2021/12/28 09:17:44;;;;;;;35.60;17.90;;;;;;;-6.84;72.73;99903.66;106256;1313;138791;-57
2021/12/28 09:20:14;;;;;;;41.80;20.70;;;;;;;-6.85;72.88;99899.39;106358;1313;22377;-57
2021/12/28 09:23:02;;;;;;;36.80;19.10;;;;;;;-6.86;72.73;99895.59;106295;1313;138772;-57
2021/12/28 09:25:31;;;;;;;40.70;18.50;;;;;;;-6.89;72.61;99897.95;105720;1313;22483;-58
2021/12/28 09:27:59;;;;;;;34.60;18.20;;;;;;;-6.92;72.48;99887.63;106340;1317;22553;-58
2021/12/28 09:30:26;;;;;;;30.70;16.10;;;;;;;-6.93;72.62;99887.88;106259;1316;138773;-58
2021/12/28 09:32:54;;;;;;;35.60;16.60;;;;;;;-6.91;72.67;99888.81;106339;1315;22479;-58
2021/12/28 09:35:22;;;;;;;43.50;18.60;;;;;;;-6.91;72.44;99886.60;106255;1316;139284;-58
2021/12/28 09:37:50;;;;;;;48.80;21.80;;;;;;;-6.92;72.58;99884.23;106267;1315;22431;-58
2021/12/28 09:40:18;;;;;;;65.90;33.10;;;;;;;-6.90;72.98;99880.25;105401;1322;22442;-58
2021/12/28 09:42:46;;;;;;;40.90;21.80;;;;;;;-6.89;73.11;99879.75;106249;1316;137901;-58
2021/12/28 09:45:14;;;;;;;42.10;19.90;;;;;;;-6.86;73.11;99880.91;106299;1316;22418;-58
2021/12/28 09:47:43;;;;;;;39.20;19.80;;;;;;;-6.84;73.03;99875.98;106218;1316;138647;-58
2021/12/28 09:50:14;;;;;;;41.10;19.90;;;;;;;-6.85;72.59;99873.54;106323;1315;22501;-58
2021/12/28 09:52:45;;;;;;;38.70;18.70;;;;;;;-6.87;72.25;99873.06;106322;1316;22523;-58
2021/12/28 09:55:14;;;;;;;37.30;18.50;;;;;;;-6.90;72.42;99870.10;106133;1316;138154;-58
2021/12/28 09:57:42;;;;;;;40.70;21.00;;;;;;;-6.91;72.25;99867.98;106275;1316;22465;-58
2021/12/28 10:00:11;;;;;;;42.30;21.20;;;;;;;-6.93;72.38;99871.31;106164;1318;137336;-58
2021/12/28 10:02:39;;;;;;;40.00;19.60;;;;;;;-6.94;72.34;99865.41;106256;1316;22506;-58
2021/12/28 10:05:22;;;;;;;39.50;22.20;;;;;;;-6.95;72.20;99867.94;106166;1316;137932;-57
2021/12/28 10:07:58;;;;;;;40.10;21.10;;;;;;;-6.94;72.46;99864.21;106391;1316;23153;-58
2021/12/28 10:10:28;;;;;;;33.20;18.30;;;;;;;-6.93;72.54;99867.11;106357;1319;22456;-58
2021/12/28 10:12:58;;;;;;;39.60;17.90;;;;;;;-6.92;72.06;99865.95;106281;1316;139094;-58
2021/12/28 10:15:30;;;;;;;34.50;18.00;;;;;;;-6.94;72.08;99866.44;106423;1319;23244;-57
2021/12/28 10:17:59;;;;;;;36.20;18.70;;;;;;;-6.92;72.14;99864.33;106292;1313;138117;-57
2021/12/28 10:20:32;;;;;;;33.00;18.40;;;;;;;-6.91;71.94;99865.84;106307;1316;22386;-57
2021/12/28 10:23:02;;;;;;;38.50;18.50;;;;;;;-6.92;71.44;99863.30;106265;1318;138239;-57
2021/12/28 10:25:57;;;;;;;34.60;17.70;;;;;;;-6.94;71.17;99858.13;106375;1316;22478;-57
2021/12/28 10:28:31;;;;;;;35.80;18.20;;;;;;;-6.96;70.86;99857.98;106339;1316;22465;-56
2021/12/28 10:31:10;;;;;;;40.30;18.30;;;;;;;-6.98;71.02;99853.02;106275;1316;138082;-57
2021/12/28 10:33:38;;;;;;;33.50;16.30;;;;;;;-6.97;70.96;99850.32;106270;1316;22278;-58
2021/12/28 10:36:13;;;;;;;36.70;20.80;;;;;;;-6.95;70.79;99846.23;106172;1316;138585;-57
2021/12/28 10:38:47;;;;;;;40.80;20.80;;;;;;;-6.93;70.96;99845.88;106260;1316;22682;-58
2021/12/28 10:41:19;;;;;;;37.70;18.70;;;;;;;-6.91;70.90;99844.25;106121;1314;137381;-57
2021/12/28 10:43:54;;;;;;;37.70;20.20;;;;;;;-6.90;70.57;99839.02;106251;1315;22535;-58
2021/12/28 10:46:25;;;;;;;31.40;17.40;;;;;;;-6.89;70.36;99847.30;106244;1316;22514;-59
2021/12/28 10:48:55;;;;;;;37.10;17.20;;;;;;;-6.89;70.41;99845.85;106263;1313;137927;-59
2021/12/28 10:51:30;;;;;;;33.40;17.80;;;;;;;-6.88;70.23;99846.50;106382;1319;23431;-60
2021/12/28 10:54:12;;;;;;;40.00;19.90;;;;;;;-6.87;70.08;99839.11;106289;1315;138481;-59
2021/12/28 10:56:47;;;;;;;43.50;22.10;;;;;;;-6.85;69.97;99837.94;106402;1317;22442;-60
2021/12/28 10:59:23;;;;;;;44.00;21.30;;;;;;;-6.85;70.24;99835.06;106188;1317;137804;-57
2021/12/28 11:01:51;;;;;;;37.90;18.60;;;;;;;-6.82;70.54;99835.66;106417;1316;22534;-58
2021/12/28 11:04:19;;;;;;;38.40;19.60;;;;;;;-6.80;70.12;99830.54;106365;1312;22391;-58
2021/12/28 11:06:49;;;;;;;39.10;18.50;;;;;;;-6.79;70.04;99832.23;105911;1315;137489;-58
2021/12/28 11:09:19;;;;;;;30.90;16.00;;;;;;;-6.79;69.91;99832.04;106242;1314;22547;-58
2021/12/28 11:11:48;;;;;;;36.50;16.60;;;;;;;-6.77;69.89;99833.84;105437;1318;139203;-58
2021/12/28 11:14:18;;;;;;;35.50;17.20;;;;;;;-6.79;69.55;99833.45;106211;1317;22581;-58